sensor_id;sensor_type;location;lat;lon;timestamp;temperature;humidity
7296;DHT22;40758;54.038;11.684;2022-07-29T00:01:48;9.50;99.90
7296;DHT22;40758;54.038;11.684;2022-07-29T00:04:22;9.60;99.90
7296;DHT22;40758;54.038;11.684;2022-07-29T00:06:52;9.60;99.90
7296;DHT22;40758;54.038;11.684;2022-07-29T00:09:20;9.50;99.90
7296;DHT22;40758;54.038;11.684;2022-07-29T00:11:49;9.30;99.90
7296;DHT22;40758;54.038;11.684;2022-07-29T00:14:20;9.20;99.90
7296;DHT22;40758;54.038;11.684;2022-07-29T00:16:49;9.00;99.90
7296;DHT22;40758;54.038;11.684;2022-07-29T00:19:18;8.90;99.90
7296;DHT22;40758;54.038;11.684;2022-07-29T00:21:49;8.80;99.90
7296;DHT22;40758;54.038;11.684;2022-07-29T00:24:17;8.70;99.90
7296;DHT22;40758;54.038;11.684;2022-07-29T00:26:47;8.60;99.90
7296;DHT22;40758;54.038;11.684;2022-07-29T00:29:16;8.50;99.90
7296;DHT22;40758;54.038;11.684;2022-07-29T00:32:03;8.50;99.90
7296;DHT22;40758;54.038;11.684;2022-07-29T00:34:33;8.70;99.90
7296;DHT22;40758;54.038;11.684;2022-07-29T00:37:19;8.70;99.90
7296;DHT22;40758;54.038;11.684;2022-07-29T00:39:52;8.80;99.90
7296;DHT22;40758;54.038;11.684;2022-07-29T00:42:22;8.70;99.90
7296;DHT22;40758;54.038;11.684;2022-07-29T00:44:53;8.80;99.90
7296;DHT22;40758;54.038;11.684;2022-07-29T00:47:23;8.90;99.90
7296;DHT22;40758;54.038;11.684;2022-07-29T00:49:52;8.80;99.90
7296;DHT22;40758;54.038;11.684;2022-07-29T00:52:21;8.80;99.90
7296;DHT22;40758;54.038;11.684;2022-07-29T00:54:51;8.90;99.90
7296;DHT22;40758;54.038;11.684;2022-07-29T00:57:21;8.90;99.90
7296;DHT22;40758;54.038;11.684;2022-07-29T00:59:49;8.80;99.90
7296;DHT22;40758;54.038;11.684;2022-07-29T01:02:18;8.90;99.90
7296;DHT22;40758;54.038;11.684;2022-07-29T01:04:51;9.10;99.90
7296;DHT22;40758;54.038;11.684;2022-07-29T01:07:20;9.10;99.90
7296;DHT22;40758;54.038;11.684;2022-07-29T01:09:52;9.00;99.90
7296;DHT22;40758;54.038;11.684;2022-07-29T01:12:25;8.80;99.90
7296;DHT22;40758;54.038;11.684;2022-07-29T01:14:55;8.60;99.90
7296;DHT22;40758;54.038;11.684;2022-07-29T01:17:27;8.50;99.90
7296;DHT22;40758;54.038;11.684;2022-07-29T01:20:10;8.40;99.90
7296;DHT22;40758;54.038;11.684;2022-07-29T01:26:15;8.40;99.90
7296;DHT22;40758;54.038;11.684;2022-07-29T01:29:12;8.50;99.90
7296;DHT22;40758;54.038;11.684;2022-07-29T01:31:51;8.60;99.90
7296;DHT22;40758;54.038;11.684;2022-07-29T01:34:35;8.80;99.90
7296;DHT22;40758;54.038;11.684;2022-07-29T01:37:22;8.90;99.90
7296;DHT22;40758;54.038;11.684;2022-07-29T01:39:59;9.00;99.90
7296;DHT22;40758;54.038;11.684;2022-07-29T01:42:35;9.00;99.90
7296;DHT22;40758;54.038;11.684;2022-07-29T01:45:12;8.80;99.90
7296;DHT22;40758;54.038;11.684;2022-07-29T01:47:46;8.70;99.90
7296;DHT22;40758;54.038;11.684;2022-07-29T01:50:28;8.80;99.90
7296;DHT22;40758;54.038;11.684;2022-07-29T01:53:06;8.70;99.90
7296;DHT22;40758;54.038;11.684;2022-07-29T01:55:42;8.60;99.90
7296;DHT22;40758;54.038;11.684;2022-07-29T01:58:15;8.50;99.90
7296;DHT22;40758;54.038;11.684;2022-07-29T02:00:50;8.40;99.90
7296;DHT22;40758;54.038;11.684;2022-07-29T02:03:21;8.30;99.90
7296;DHT22;40758;54.038;11.684;2022-07-29T02:05:52;8.20;99.90
7296;DHT22;40758;54.038;11.684;2022-07-29T02:08:24;8.10;99.90
7296;DHT22;40758;54.038;11.684;2022-07-29T02:10:55;8.00;99.90
7296;DHT22;40758;54.038;11.684;2022-07-29T02:13:26;8.00;99.90
7296;DHT22;40758;54.038;11.684;2022-07-29T02:15:59;8.10;99.90
7296;DHT22;40758;54.038;11.684;2022-07-29T02:18:32;8.10;99.90
7296;DHT22;40758;54.038;11.684;2022-07-29T02:21:04;8.20;99.90
7296;DHT22;40758;54.038;11.684;2022-07-29T02:23:43;8.30;99.90
7296;DHT22;40758;54.038;11.684;2022-07-29T02:26:18;8.40;99.90
7296;DHT22;40758;54.038;11.684;2022-07-29T02:28:53;8.50;99.90
7296;DHT22;40758;54.038;11.684;2022-07-29T02:31:30;8.40;99.90
7296;DHT22;40758;54.038;11.684;2022-07-29T02:34:05;8.30;99.90
7296;DHT22;40758;54.038;11.684;2022-07-29T02:36:37;8.30;99.90
7296;DHT22;40758;54.038;11.684;2022-07-29T02:39:08;8.20;99.90
7296;DHT22;40758;54.038;11.684;2022-07-29T02:41:42;8.10;99.90
7296;DHT22;40758;54.038;11.684;2022-07-29T02:44:15;8.00;99.90
7296;DHT22;40758;54.038;11.684;2022-07-29T02:46:51;8.00;99.90
7296;DHT22;40758;54.038;11.684;2022-07-29T02:49:36;8.00;99.90
7296;DHT22;40758;54.038;11.684;2022-07-29T02:52:10;8.00;99.90
7296;DHT22;40758;54.038;11.684;2022-07-29T02:54:47;7.90;99.90
7296;DHT22;40758;54.038;11.684;2022-07-29T02:57:29;8.00;99.90
7296;DHT22;40758;54.038;11.684;2022-07-29T03:00:23;8.00;99.90
7296;DHT22;40758;54.038;11.684;2022-07-29T03:03:00;8.00;99.90
7296;DHT22;40758;54.038;11.684;2022-07-29T03:05:32;8.00;99.90
7296;DHT22;40758;54.038;11.684;2022-07-29T03:08:07;8.10;99.90
7296;DHT22;40758;54.038;11.684;2022-07-29T03:10:40;8.20;99.90
7296;DHT22;40758;54.038;11.684;2022-07-29T03:13:13;8.30;99.90
7296;DHT22;40758;54.038;11.684;2022-07-29T03:15:47;8.50;99.90
7296;DHT22;40758;54.038;11.684;2022-07-29T03:18:18;8.50;99.90
7296;DHT22;40758;54.038;11.684;2022-07-29T03:20:47;8.50;99.90
7296;DHT22;40758;54.038;11.684;2022-07-29T03:23:19;8.50;99.90
7296;DHT22;40758;54.038;11.684;2022-07-29T03:25:49;8.60;99.90
7296;DHT22;40758;54.038;11.684;2022-07-29T03:28:21;8.60;99.90
7296;DHT22;40758;54.038;11.684;2022-07-29T03:30:53;8.70;99.90
7296;DHT22;40758;54.038;11.684;2022-07-29T03:33:24;8.80;99.90
7296;DHT22;40758;54.038;11.684;2022-07-29T03:35:53;9.00;99.90
7296;DHT22;40758;54.038;11.684;2022-07-29T03:38:25;9.10;99.90
7296;DHT22;40758;54.038;11.684;2022-07-29T03:41:00;9.10;99.90
7296;DHT22;40758;54.038;11.684;2022-07-29T03:43:37;9.20;99.90
7296;DHT22;40758;54.038;11.684;2022-07-29T03:46:16;9.30;99.90
7296;DHT22;40758;54.038;11.684;2022-07-29T03:48:54;9.40;99.90
7296;DHT22;40758;54.038;11.684;2022-07-29T03:51:27;9.40;99.90
7296;DHT22;40758;54.038;11.684;2022-07-29T03:54:01;9.50;99.90
7296;DHT22;40758;54.038;11.684;2022-07-29T03:56:38;9.60;99.90
7296;DHT22;40758;54.038;11.684;2022-07-29T03:59:14;9.70;99.90
7296;DHT22;40758;54.038;11.684;2022-07-29T04:01:45;9.80;99.90
7296;DHT22;40758;54.038;11.684;2022-07-29T04:04:16;9.90;99.90
7296;DHT22;40758;54.038;11.684;2022-07-29T04:06:46;10.00;99.90
7296;DHT22;40758;54.038;11.684;2022-07-29T04:09:15;10.20;99.90
7296;DHT22;40758;54.038;11.684;2022-07-29T04:11:45;10.30;99.90
7296;DHT22;40758;54.038;11.684;2022-07-29T04:14:31;10.50;99.90
7296;DHT22;40758;54.038;11.684;2022-07-29T04:17:02;10.70;99.90
7296;DHT22;40758;54.038;11.684;2022-07-29T04:19:34;10.70;99.90
7296;DHT22;40758;54.038;11.684;2022-07-29T04:22:03;10.90;99.90
7296;DHT22;40758;54.038;11.684;2022-07-29T04:24:32;11.00;99.90
7296;DHT22;40758;54.038;11.684;2022-07-29T04:27:03;11.10;99.90
7296;DHT22;40758;54.038;11.684;2022-07-29T04:29:31;11.30;99.90
7296;DHT22;40758;54.038;11.684;2022-07-29T04:32:04;11.40;99.90
7296;DHT22;40758;54.038;11.684;2022-07-29T04:34:36;11.60;99.90
7296;DHT22;40758;54.038;11.684;2022-07-29T04:37:05;11.70;99.90
7296;DHT22;40758;54.038;11.684;2022-07-29T04:39:34;11.80;99.90
7296;DHT22;40758;54.038;11.684;2022-07-29T04:42:04;12.00;99.90
7296;DHT22;40758;54.038;11.684;2022-07-29T04:44:35;12.10;99.90
7296;DHT22;40758;54.038;11.684;2022-07-29T04:47:09;12.30;99.90
7296;DHT22;40758;54.038;11.684;2022-07-29T04:49:40;12.40;99.90
7296;DHT22;40758;54.038;11.684;2022-07-29T04:52:09;12.60;99.90
7296;DHT22;40758;54.038;11.684;2022-07-29T04:54:38;12.70;99.90
7296;DHT22;40758;54.038;11.684;2022-07-29T04:57:08;12.80;99.90
7296;DHT22;40758;54.038;11.684;2022-07-29T04:59:37;13.00;99.90
7296;DHT22;40758;54.038;11.684;2022-07-29T05:02:07;13.10;99.90
7296;DHT22;40758;54.038;11.684;2022-07-29T05:04:36;13.30;99.90
7296;DHT22;40758;54.038;11.684;2022-07-29T05:07:08;13.40;99.90
7296;DHT22;40758;54.038;11.684;2022-07-29T05:09:37;13.60;99.90
7296;DHT22;40758;54.038;11.684;2022-07-29T05:12:06;13.60;99.90
7296;DHT22;40758;54.038;11.684;2022-07-29T05:14:35;13.80;99.90
7296;DHT22;40758;54.038;11.684;2022-07-29T05:17:05;13.90;99.90
7296;DHT22;40758;54.038;11.684;2022-07-29T05:19:34;14.00;99.90
7296;DHT22;40758;54.038;11.684;2022-07-29T05:22:08;14.20;99.90
7296;DHT22;40758;54.038;11.684;2022-07-29T05:24:40;14.50;99.90
7296;DHT22;40758;54.038;11.684;2022-07-29T05:27:11;15.00;99.90
7296;DHT22;40758;54.038;11.684;2022-07-29T05:29:41;15.60;99.90
7296;DHT22;40758;54.038;11.684;2022-07-29T05:32:12;16.30;99.90
7296;DHT22;40758;54.038;11.684;2022-07-29T05:34:41;17.40;99.90
7296;DHT22;40758;54.038;11.684;2022-07-29T05:37:19;18.50;99.90
7296;DHT22;40758;54.038;11.684;2022-07-29T05:39:48;19.40;99.90
7296;DHT22;40758;54.038;11.684;2022-07-29T05:42:25;20.20;99.90
7296;DHT22;40758;54.038;11.684;2022-07-29T05:44:55;20.40;99.90
7296;DHT22;40758;54.038;11.684;2022-07-29T05:47:24;20.60;99.90
7296;DHT22;40758;54.038;11.684;2022-07-29T05:49:56;20.50;99.90
7296;DHT22;40758;54.038;11.684;2022-07-29T05:52:27;20.40;99.90
7296;DHT22;40758;54.038;11.684;2022-07-29T05:54:56;20.80;99.90
7296;DHT22;40758;54.038;11.684;2022-07-29T05:57:25;21.60;99.90
7296;DHT22;40758;54.038;11.684;2022-07-29T05:59:54;22.20;99.90
7296;DHT22;40758;54.038;11.684;2022-07-29T06:02:23;23.20;99.90
7296;DHT22;40758;54.038;11.684;2022-07-29T06:04:52;23.70;99.90
7296;DHT22;40758;54.038;11.684;2022-07-29T06:07:22;24.20;99.90
7296;DHT22;40758;54.038;11.684;2022-07-29T06:09:52;24.40;99.90
7296;DHT22;40758;54.038;11.684;2022-07-29T06:12:24;24.00;99.90
7296;DHT22;40758;54.038;11.684;2022-07-29T06:14:55;23.10;99.90
7296;DHT22;40758;54.038;11.684;2022-07-29T06:17:25;22.00;99.90
7296;DHT22;40758;54.038;11.684;2022-07-29T06:19:55;21.40;99.90
7296;DHT22;40758;54.038;11.684;2022-07-29T06:22:28;21.10;99.90
7296;DHT22;40758;54.038;11.684;2022-07-29T06:25:01;20.80;99.90
7296;DHT22;40758;54.038;11.684;2022-07-29T06:27:31;20.70;99.90
7296;DHT22;40758;54.038;11.684;2022-07-29T06:30:03;20.70;99.90
7296;DHT22;40758;54.038;11.684;2022-07-29T06:32:36;20.60;99.90
7296;DHT22;40758;54.038;11.684;2022-07-29T06:35:09;20.40;99.90
7296;DHT22;40758;54.038;11.684;2022-07-29T06:38:01;20.30;99.90
7296;DHT22;40758;54.038;11.684;2022-07-29T06:40:54;20.60;99.90
7296;DHT22;40758;54.038;11.684;2022-07-29T06:43:34;21.30;99.90
7296;DHT22;40758;54.038;11.684;2022-07-29T06:46:21;22.30;99.90
7296;DHT22;40758;54.038;11.684;2022-07-29T06:48:57;22.70;99.90
7296;DHT22;40758;54.038;11.684;2022-07-29T06:51:29;22.50;99.90
7296;DHT22;40758;54.038;11.684;2022-07-29T06:54:01;22.20;99.90
7296;DHT22;40758;54.038;11.684;2022-07-29T06:56:35;22.50;99.90
7296;DHT22;40758;54.038;11.684;2022-07-29T06:59:07;23.30;99.90
7296;DHT22;40758;54.038;11.684;2022-07-29T07:01:40;24.50;99.90
7296;DHT22;40758;54.038;11.684;2022-07-29T07:04:13;25.60;99.90
7296;DHT22;40758;54.038;11.684;2022-07-29T07:06:43;25.60;99.90
7296;DHT22;40758;54.038;11.684;2022-07-29T07:09:12;26.10;99.90
7296;DHT22;40758;54.038;11.684;2022-07-29T07:11:43;26.80;99.90
7296;DHT22;40758;54.038;11.684;2022-07-29T07:14:15;27.60;99.90
7296;DHT22;40758;54.038;11.684;2022-07-29T07:16:46;28.40;99.60
7296;DHT22;40758;54.038;11.684;2022-07-29T07:19:18;27.80;95.20
7296;DHT22;40758;54.038;11.684;2022-07-29T07:21:47;27.70;96.40
7296;DHT22;40758;54.038;11.684;2022-07-29T07:24:17;28.20;95.10
7296;DHT22;40758;54.038;11.684;2022-07-29T07:26:49;28.00;94.00
7296;DHT22;40758;54.038;11.684;2022-07-29T07:29:19;28.10;92.90
7296;DHT22;40758;54.038;11.684;2022-07-29T07:31:48;27.90;92.30
7296;DHT22;40758;54.038;11.684;2022-07-29T07:34:19;27.10;92.30
7296;DHT22;40758;54.038;11.684;2022-07-29T07:36:55;26.30;96.70
7296;DHT22;40758;54.038;11.684;2022-07-29T07:39:24;25.50;97.60
7296;DHT22;40758;54.038;11.684;2022-07-29T07:41:56;25.10;99.90
7296;DHT22;40758;54.038;11.684;2022-07-29T07:44:25;25.10;99.90
7296;DHT22;40758;54.038;11.684;2022-07-29T07:46:54;25.40;99.90
7296;DHT22;40758;54.038;11.684;2022-07-29T07:49:29;24.80;99.90
7296;DHT22;40758;54.038;11.684;2022-07-29T07:51:59;24.60;99.90
7296;DHT22;40758;54.038;11.684;2022-07-29T07:54:29;24.40;99.90
7296;DHT22;40758;54.038;11.684;2022-07-29T07:57:00;24.00;99.90
7296;DHT22;40758;54.038;11.684;2022-07-29T07:59:28;24.00;99.90
7296;DHT22;40758;54.038;11.684;2022-07-29T08:01:58;24.30;99.90
7296;DHT22;40758;54.038;11.684;2022-07-29T08:04:28;24.30;99.90
7296;DHT22;40758;54.038;11.684;2022-07-29T08:06:59;24.40;99.90
7296;DHT22;40758;54.038;11.684;2022-07-29T08:09:29;24.50;99.90
7296;DHT22;40758;54.038;11.684;2022-07-29T08:12:00;24.60;99.90
7296;DHT22;40758;54.038;11.684;2022-07-29T08:14:31;24.70;99.90
7296;DHT22;40758;54.038;11.684;2022-07-29T08:17:02;25.20;99.90
7296;DHT22;40758;54.038;11.684;2022-07-29T08:19:33;25.70;99.90
7296;DHT22;40758;54.038;11.684;2022-07-29T08:22:02;26.10;99.90
7296;DHT22;40758;54.038;11.684;2022-07-29T08:24:31;26.40;99.90
7296;DHT22;40758;54.038;11.684;2022-07-29T08:27:23;26.20;99.90
7296;DHT22;40758;54.038;11.684;2022-07-29T08:30:10;26.50;99.90
7296;DHT22;40758;54.038;11.684;2022-07-29T08:32:44;26.90;99.90
7296;DHT22;40758;54.038;11.684;2022-07-29T08:35:23;27.30;97.80
7296;DHT22;40758;54.038;11.684;2022-07-29T08:37:56;27.50;99.90
7296;DHT22;40758;54.038;11.684;2022-07-29T08:40:29;29.00;93.60
7296;DHT22;40758;54.038;11.684;2022-07-29T08:43:04;29.90;81.40
7296;DHT22;40758;54.038;11.684;2022-07-29T08:45:43;28.80;74.90
7296;DHT22;40758;54.038;11.684;2022-07-29T08:48:15;28.50;78.20
7296;DHT22;40758;54.038;11.684;2022-07-29T08:50:47;28.30;81.60
7296;DHT22;40758;54.038;11.684;2022-07-29T08:53:18;28.70;78.10
7296;DHT22;40758;54.038;11.684;2022-07-29T08:55:49;28.70;79.10
7296;DHT22;40758;54.038;11.684;2022-07-29T08:58:21;28.30;77.00
7296;DHT22;40758;54.038;11.684;2022-07-29T09:00:53;27.70;79.30
7296;DHT22;40758;54.038;11.684;2022-07-29T09:03:25;27.80;84.30
7296;DHT22;40758;54.038;11.684;2022-07-29T09:06:00;28.20;80.10
7296;DHT22;40758;54.038;11.684;2022-07-29T09:08:31;29.60;81.70
7296;DHT22;40758;54.038;11.684;2022-07-29T09:11:02;31.20;70.90
7296;DHT22;40758;54.038;11.684;2022-07-29T09:13:35;30.70;63.70
7296;DHT22;40758;54.038;11.684;2022-07-29T09:16:05;29.70;65.70
7296;DHT22;40758;54.038;11.684;2022-07-29T09:18:38;29.00;67.90
7296;DHT22;40758;54.038;11.684;2022-07-29T09:21:10;27.90;68.70
7296;DHT22;40758;54.038;11.684;2022-07-29T09:24:00;27.20;73.80
7296;DHT22;40758;54.038;11.684;2022-07-29T09:26:34;27.80;73.40
7296;DHT22;40758;54.038;11.684;2022-07-29T09:29:12;28.40;76.20
7296;DHT22;40758;54.038;11.684;2022-07-29T09:31:43;28.60;79.10
7296;DHT22;40758;54.038;11.684;2022-07-29T09:34:15;28.60;80.00
7296;DHT22;40758;54.038;11.684;2022-07-29T09:36:55;28.80;80.40
7296;DHT22;40758;54.038;11.684;2022-07-29T09:39:29;29.50;79.60
7296;DHT22;40758;54.038;11.684;2022-07-29T09:42:00;29.60;77.90
7296;DHT22;40758;54.038;11.684;2022-07-29T09:44:44;29.40;81.00
7296;DHT22;40758;54.038;11.684;2022-07-29T09:47:16;29.00;81.70
7296;DHT22;40758;54.038;11.684;2022-07-29T09:49:55;29.00;82.10
7296;DHT22;40758;54.038;11.684;2022-07-29T09:52:27;29.10;83.70
7296;DHT22;40758;54.038;11.684;2022-07-29T09:55:05;29.20;82.50
7296;DHT22;40758;54.038;11.684;2022-07-29T09:57:36;28.30;85.80
7296;DHT22;40758;54.038;11.684;2022-07-29T10:00:08;27.40;87.30
7296;DHT22;40758;54.038;11.684;2022-07-29T10:02:46;26.90;91.40
7296;DHT22;40758;54.038;11.684;2022-07-29T10:05:20;26.70;96.30
7296;DHT22;40758;54.038;11.684;2022-07-29T10:08:04;26.80;98.70
7296;DHT22;40758;54.038;11.684;2022-07-29T10:10:36;26.80;99.90
7296;DHT22;40758;54.038;11.684;2022-07-29T10:13:08;26.70;99.90
7296;DHT22;40758;54.038;11.684;2022-07-29T10:15:44;26.90;99.90
7296;DHT22;40758;54.038;11.684;2022-07-29T10:18:14;26.80;99.90
7296;DHT22;40758;54.038;11.684;2022-07-29T10:20:45;26.70;99.90
7296;DHT22;40758;54.038;11.684;2022-07-29T10:23:14;26.90;99.90
7296;DHT22;40758;54.038;11.684;2022-07-29T10:25:45;27.10;99.90
7296;DHT22;40758;54.038;11.684;2022-07-29T10:28:15;27.30;99.90
7296;DHT22;40758;54.038;11.684;2022-07-29T10:30:46;27.40;99.90
7296;DHT22;40758;54.038;11.684;2022-07-29T10:33:35;27.30;99.90
7296;DHT22;40758;54.038;11.684;2022-07-29T10:36:27;27.00;99.90
7296;DHT22;40758;54.038;11.684;2022-07-29T10:39:20;26.80;99.90
7296;DHT22;40758;54.038;11.684;2022-07-29T10:42:17;27.50;99.90
7296;DHT22;40758;54.038;11.684;2022-07-29T10:45:02;27.30;99.90
7296;DHT22;40758;54.038;11.684;2022-07-29T10:47:34;27.40;99.90
7296;DHT22;40758;54.038;11.684;2022-07-29T10:50:05;27.80;99.90
7296;DHT22;40758;54.038;11.684;2022-07-29T10:52:53;27.60;99.90
7296;DHT22;40758;54.038;11.684;2022-07-29T10:55:34;27.30;99.90
7296;DHT22;40758;54.038;11.684;2022-07-29T10:58:16;27.40;99.90
7296;DHT22;40758;54.038;11.684;2022-07-29T11:00:48;27.30;99.90
7296;DHT22;40758;54.038;11.684;2022-07-29T11:03:45;26.80;99.90
7296;DHT22;40758;54.038;11.684;2022-07-29T11:06:19;26.90;99.90
7296;DHT22;40758;54.038;11.684;2022-07-29T11:09:15;27.10;99.90
7296;DHT22;40758;54.038;11.684;2022-07-29T11:11:46;27.10;99.90
7296;DHT22;40758;54.038;11.684;2022-07-29T11:14:18;27.00;99.90
7296;DHT22;40758;54.038;11.684;2022-07-29T11:17:07;26.90;99.90
7296;DHT22;40758;54.038;11.684;2022-07-29T11:19:41;26.60;99.90
7296;DHT22;40758;54.038;11.684;2022-07-29T11:22:32;26.40;99.90
7296;DHT22;40758;54.038;11.684;2022-07-29T11:25:16;26.00;99.90
7296;DHT22;40758;54.038;11.684;2022-07-29T11:28:17;25.80;99.90
7296;DHT22;40758;54.038;11.684;2022-07-29T11:30:53;25.40;99.90
7296;DHT22;40758;54.038;11.684;2022-07-29T11:33:28;25.40;99.90
7296;DHT22;40758;54.038;11.684;2022-07-29T11:36:20;25.30;99.90
7296;DHT22;40758;54.038;11.684;2022-07-29T11:39:25;24.90;99.90
7296;DHT22;40758;54.038;11.684;2022-07-29T11:42:36;25.10;99.90
7296;DHT22;40758;54.038;11.684;2022-07-29T11:45:12;25.30;99.90
7296;DHT22;40758;54.038;11.684;2022-07-29T11:48:04;25.40;99.90
7296;DHT22;40758;54.038;11.684;2022-07-29T11:50:53;25.30;99.90
7296;DHT22;40758;54.038;11.684;2022-07-29T11:53:25;25.30;99.90
7296;DHT22;40758;54.038;11.684;2022-07-29T11:55:59;25.30;99.90
7296;DHT22;40758;54.038;11.684;2022-07-29T11:58:30;25.30;99.90
7296;DHT22;40758;54.038;11.684;2022-07-29T12:01:00;25.00;99.90
7296;DHT22;40758;54.038;11.684;2022-07-29T12:03:32;24.90;99.90
7296;DHT22;40758;54.038;11.684;2022-07-29T12:06:10;24.70;99.90
7296;DHT22;40758;54.038;11.684;2022-07-29T12:08:46;24.70;99.90
7296;DHT22;40758;54.038;11.684;2022-07-29T12:11:16;24.90;99.90
7296;DHT22;40758;54.038;11.684;2022-07-29T12:13:46;24.90;99.90
7296;DHT22;40758;54.038;11.684;2022-07-29T12:16:17;24.80;99.90
7296;DHT22;40758;54.038;11.684;2022-07-29T12:18:56;24.90;99.90
7296;DHT22;40758;54.038;11.684;2022-07-29T12:21:29;24.90;99.90
7296;DHT22;40758;54.038;11.684;2022-07-29T12:24:24;24.60;99.90
7296;DHT22;40758;54.038;11.684;2022-07-29T12:26:55;24.60;99.90
7296;DHT22;40758;54.038;11.684;2022-07-29T12:29:28;24.70;99.90
7296;DHT22;40758;54.038;11.684;2022-07-29T12:32:03;24.90;99.90
7296;DHT22;40758;54.038;11.684;2022-07-29T12:34:43;25.00;99.90
7296;DHT22;40758;54.038;11.684;2022-07-29T12:37:13;25.00;99.90
7296;DHT22;40758;54.038;11.684;2022-07-29T12:39:43;25.10;99.90
7296;DHT22;40758;54.038;11.684;2022-07-29T12:42:13;25.00;99.90
7296;DHT22;40758;54.038;11.684;2022-07-29T12:44:46;25.10;99.90
7296;DHT22;40758;54.038;11.684;2022-07-29T12:47:20;24.70;99.90
7296;DHT22;40758;54.038;11.684;2022-07-29T12:49:52;24.70;99.90
7296;DHT22;40758;54.038;11.684;2022-07-29T12:52:37;24.70;99.90
7296;DHT22;40758;54.038;11.684;2022-07-29T12:55:08;24.70;99.90
7296;DHT22;40758;54.038;11.684;2022-07-29T12:57:45;24.80;99.90
7296;DHT22;40758;54.038;11.684;2022-07-29T13:00:16;24.70;99.90
7296;DHT22;40758;54.038;11.684;2022-07-29T13:02:55;25.00;99.90
7296;DHT22;40758;54.038;11.684;2022-07-29T13:05:39;25.20;99.90
7296;DHT22;40758;54.038;11.684;2022-07-29T13:08:16;25.40;99.90
7296;DHT22;40758;54.038;11.684;2022-07-29T13:10:50;25.50;99.90
7296;DHT22;40758;54.038;11.684;2022-07-29T13:13:19;25.80;99.90
7296;DHT22;40758;54.038;11.684;2022-07-29T13:16:05;26.10;99.90
7296;DHT22;40758;54.038;11.684;2022-07-29T13:18:38;26.20;99.90
7296;DHT22;40758;54.038;11.684;2022-07-29T13:21:13;26.50;99.90
7296;DHT22;40758;54.038;11.684;2022-07-29T13:23:44;26.80;99.90
7296;DHT22;40758;54.038;11.684;2022-07-29T13:26:15;26.80;99.90
7296;DHT22;40758;54.038;11.684;2022-07-29T13:28:46;26.60;99.90
7296;DHT22;40758;54.038;11.684;2022-07-29T13:31:18;27.40;99.90
7296;DHT22;40758;54.038;11.684;2022-07-29T13:33:47;28.30;99.90
7296;DHT22;40758;54.038;11.684;2022-07-29T13:36:16;28.40;99.90
7296;DHT22;40758;54.038;11.684;2022-07-29T13:38:45;29.00;99.90
7296;DHT22;40758;54.038;11.684;2022-07-29T13:41:16;29.60;99.90
7296;DHT22;40758;54.038;11.684;2022-07-29T13:43:46;29.70;99.90
7296;DHT22;40758;54.038;11.684;2022-07-29T13:46:16;30.30;99.90
7296;DHT22;40758;54.038;11.684;2022-07-29T13:48:45;30.50;99.90
7296;DHT22;40758;54.038;11.684;2022-07-29T13:51:14;30.50;99.90
7296;DHT22;40758;54.038;11.684;2022-07-29T13:53:43;30.70;99.90
7296;DHT22;40758;54.038;11.684;2022-07-29T13:56:12;30.70;99.90
7296;DHT22;40758;54.038;11.684;2022-07-29T13:58:44;30.60;99.90
7296;DHT22;40758;54.038;11.684;2022-07-29T14:01:13;30.70;99.90
7296;DHT22;40758;54.038;11.684;2022-07-29T14:03:43;30.80;99.90
7296;DHT22;40758;54.038;11.684;2022-07-29T14:06:13;30.00;99.90
7296;DHT22;40758;54.038;11.684;2022-07-29T14:08:45;29.90;99.90
7296;DHT22;40758;54.038;11.684;2022-07-29T14:11:14;29.50;99.90
7296;DHT22;40758;54.038;11.684;2022-07-29T14:13:47;29.00;99.90
7296;DHT22;40758;54.038;11.684;2022-07-29T14:16:16;28.50;99.90
7296;DHT22;40758;54.038;11.684;2022-07-29T14:18:48;28.40;99.90
7296;DHT22;40758;54.038;11.684;2022-07-29T14:21:18;28.00;99.90
7296;DHT22;40758;54.038;11.684;2022-07-29T14:23:47;27.60;99.90
7296;DHT22;40758;54.038;11.684;2022-07-29T14:26:16;27.70;99.90
7296;DHT22;40758;54.038;11.684;2022-07-29T14:28:49;27.50;99.90
7296;DHT22;40758;54.038;11.684;2022-07-29T14:31:18;27.40;99.90
7296;DHT22;40758;54.038;11.684;2022-07-29T14:33:49;27.40;99.90
7296;DHT22;40758;54.038;11.684;2022-07-29T14:36:18;27.20;99.90
7296;DHT22;40758;54.038;11.684;2022-07-29T14:38:49;27.00;99.90
7296;DHT22;40758;54.038;11.684;2022-07-29T14:41:18;27.00;99.90
7296;DHT22;40758;54.038;11.684;2022-07-29T14:43:53;26.80;99.90
7296;DHT22;40758;54.038;11.684;2022-07-29T14:46:22;27.00;99.90
7296;DHT22;40758;54.038;11.684;2022-07-29T14:48:53;26.90;99.90
7296;DHT22;40758;54.038;11.684;2022-07-29T14:51:22;27.00;99.90
7296;DHT22;40758;54.038;11.684;2022-07-29T14:53:59;27.20;99.90
7296;DHT22;40758;54.038;11.684;2022-07-29T14:56:28;27.30;99.90
7296;DHT22;40758;54.038;11.684;2022-07-29T14:59:04;27.40;99.90
7296;DHT22;40758;54.038;11.684;2022-07-29T15:01:34;27.70;99.90
7296;DHT22;40758;54.038;11.684;2022-07-29T15:04:03;27.80;99.90
7296;DHT22;40758;54.038;11.684;2022-07-29T15:06:32;27.40;99.90
7296;DHT22;40758;54.038;11.684;2022-07-29T15:09:01;27.00;99.90
7296;DHT22;40758;54.038;11.684;2022-07-29T15:11:30;26.90;99.90
7296;DHT22;40758;54.038;11.684;2022-07-29T15:14:06;26.90;99.90
7296;DHT22;40758;54.038;11.684;2022-07-29T15:16:36;26.80;99.90
7296;DHT22;40758;54.038;11.684;2022-07-29T15:19:10;26.50;99.90
7296;DHT22;40758;54.038;11.684;2022-07-29T15:21:39;26.20;99.90
7296;DHT22;40758;54.038;11.684;2022-07-29T15:24:25;26.10;99.90
7296;DHT22;40758;54.038;11.684;2022-07-29T15:26:57;26.00;99.90
7296;DHT22;40758;54.038;11.684;2022-07-29T15:29:29;26.40;99.90
7296;DHT22;40758;54.038;11.684;2022-07-29T15:31:59;26.60;99.90
7296;DHT22;40758;54.038;11.684;2022-07-29T15:34:33;26.80;99.90
7296;DHT22;40758;54.038;11.684;2022-07-29T15:37:03;27.50;99.90
7296;DHT22;40758;54.038;11.684;2022-07-29T15:39:32;28.40;99.90
7296;DHT22;40758;54.038;11.684;2022-07-29T15:42:02;29.20;99.90
7296;DHT22;40758;54.038;11.684;2022-07-29T15:44:33;29.10;99.90
7296;DHT22;40758;54.038;11.684;2022-07-29T15:47:11;29.20;99.90
7296;DHT22;40758;54.038;11.684;2022-07-29T15:49:42;28.90;99.90
7296;DHT22;40758;54.038;11.684;2022-07-29T15:52:17;28.10;99.90
7296;DHT22;40758;54.038;11.684;2022-07-29T15:54:52;27.40;99.90
7296;DHT22;40758;54.038;11.684;2022-07-29T15:57:22;27.00;99.90
7296;DHT22;40758;54.038;11.684;2022-07-29T15:59:53;27.20;99.90
7296;DHT22;40758;54.038;11.684;2022-07-29T16:02:22;27.40;99.90
7296;DHT22;40758;54.038;11.684;2022-07-29T16:04:51;27.70;99.90
7296;DHT22;40758;54.038;11.684;2022-07-29T16:07:21;27.80;99.60
7296;DHT22;40758;54.038;11.684;2022-07-29T16:09:57;27.60;98.00
7296;DHT22;40758;54.038;11.684;2022-07-29T16:12:26;27.60;98.00
7296;DHT22;40758;54.038;11.684;2022-07-29T16:14:57;27.40;97.90
7296;DHT22;40758;54.038;11.684;2022-07-29T16:17:26;27.20;98.70
7296;DHT22;40758;54.038;11.684;2022-07-29T16:19:55;27.20;97.80